| DS18B20 | SHTC3 | ||||||
|---|---|---|---|---|---|---|---|
| ID | Date d/m/Y & Time | data1 สูง | data2 ต่ำ | data3 นอก | temp pcb | hum pcb | Time |
| 10284 | 09/04/2026 15:31:42 | 31.2  | 31.1  | 27.0  | 31.1  | 69.1  | 15:31 |
| 10283 | 09/04/2026 15:27:00 | 31.2  | 31.1  | 26.9  | 31.1  | 69.0  | 15:27 |
| 10282 | 09/04/2026 15:22:19 | 31.3  | 31.2  | 26.9  | 31.2  | 69.0  | 15:22 |
| 10281 | 09/04/2026 15:17:37 | 31.4  | 31.3  | 26.6  | 31.2  | 68.9  | 15:17 |
| 10280 | 09/04/2026 15:12:55 | 31.5  | 31.4  | 26.5  | 31.4  | 68.8  | 15:12 |
| 10279 | 09/04/2026 15:08:13 | 31.6  | 31.5  | 26.5  | 31.6  | 68.7  | 15:08 |
| 10278 | 09/04/2026 15:03:31 | 31.8  | 31.6  | 26.3  | 31.6  | 68.6  | 15:03 |
| 10277 | 09/04/2026 14:58:49 | 31.8  | 31.7  | 26.1  | 31.8  | 68.4  | 14:58 |
| 10276 | 09/04/2026 14:54:07 | 31.9  | 31.8  | 25.8  | 31.8  | 68.2  | 14:54 |
| 10275 | 09/04/2026 14:49:25 | 32.1  | 31.9  | 25.4  | 31.9  | 68.1  | 14:49 |
| 10274 | 09/04/2026 14:44:43 | 32.2  | 32.0  | 25.3  | 32.1  | 67.8  | 14:44 |
| 10273 | 09/04/2026 14:40:01 | 32.4  | 32.1  | 25.1  | 32.4  | 67.6  | 14:40 |
| 10272 | 09/04/2026 14:35:19 | 32.6  | 32.2  | 25.4  | 32.3  | 67.3  | 14:35 |
| 10271 | 09/04/2026 14:30:37 | 32.8  | 32.4  | 24.3  | 32.5  | 67.0  | 14:30 |
| 10270 | 09/04/2026 14:25:55 | 32.9  | 32.4  | 24.2  | 32.7  | 66.9  | 14:25 |
| 10269 | 09/04/2026 14:21:13 | 33.1  | 32.5  | 23.4  | 32.9  | 66.8  | 14:21 |
| 10268 | 09/04/2026 14:16:31 | 33.4  | 32.7  | 24.3  | 33.1  | 66.7  | 14:16 |
| 10267 | 09/04/2026 14:11:49 | 33.6  | 32.8  | 26.7  | 33.2  | 66.7  | 14:11 |
| 10266 | 09/04/2026 14:07:07 | 33.7  | 32.8  | 30.8  | 33.4  | 66.4  | 14:07 |
| 10265 | 09/04/2026 14:02:25 | 33.8  | 32.8  | 31.5  | 33.3  | 66.1  | 14:02 |
| 10264 | 09/04/2026 13:57:44 | 33.9  | 32.8  | 32.1  | 33.5  | 65.9  | 13:57 |
| 10263 | 09/04/2026 13:53:02 | 33.9  | 32.8  | 33.0  | 33.4  | 65.7  | 13:53 |
| 10262 | 09/04/2026 13:48:18 | 34.1  | 32.8  | 32.9  | 33.6  | 65.6  | 13:48 |
| 10261 | 09/04/2026 13:43:36 | 34.1  | 32.8  | 33.0  | 33.5  | 65.6  | 13:43 |